Time;durP1;ratioP1;P1;durP2;ratioP2;P2;SDS_P1;SDS_P2;PMS_P1;PMS_P2;Temp;Humidity;BMP_temperature;BMP_pressure;BME280_temperature;BME280_humidity;BME280_pressure;Samples;Min_cycle;Max_cycle;Signal;HPM_P1;HPM_P2
2021/07/29 00:00:23;;;;;;;1.80;1.00;;;16.90;78.30;;;;;;2057781;28;20031;-94
2021/07/29 00:01:23;;;;;;;2.67;1.17;;;16.80;78.30;;;;;;2052818;28;20043;-94
2021/07/29 00:02:27;;;;;;;2.90;1.30;;;16.80;78.30;;;;;;2062018;28;20126;-93
2021/07/29 00:03:28;;;;;;;3.05;1.30;;;16.80;78.30;;;;;;2055949;28;20048;-93
2021/07/29 00:04:28;;;;;;;2.22;1.27;;;16.80;78.40;;;;;;2055848;28;20432;-92
2021/07/29 00:05:31;;;;;;;2.90;1.30;;;16.80;78.40;;;;;;2065106;28;20065;-93
2021/07/29 00:06:31;;;;;;;1.98;1.15;;;16.80;78.40;;;;;;2057153;28;20042;-93
2021/07/29 00:07:32;;;;;;;1.67;1.20;;;16.80;78.50;;;;;;2048266;28;20098;-93
2021/07/29 00:08:33;;;;;;;2.40;1.10;;;16.80;78.50;;;;;;2057149;28;20038;-92
2021/07/29 00:09:34;;;;;;;2.30;1.30;;;16.80;78.50;;;;;;2048667;29;20070;-93
2021/07/29 00:10:35;;;;;;;2.42;1.08;;;16.70;78.40;;;;;;2057691;28;20114;-93
2021/07/29 00:11:35;;;;;;;2.10;1.17;;;16.70;78.40;;;;;;2060440;28;20409;-92
2021/07/29 00:12:36;;;;;;;1.88;1.02;;;16.70;78.40;;;;;;2053615;28;20039;-92
2021/07/29 00:13:39;;;;;;;2.22;1.00;;;16.70;78.40;;;;;;2051285;28;20066;-93
2021/07/29 00:14:47;;;;;;;2.80;1.30;;;16.70;78.50;;;;;;2058145;28;20027;-93
2021/07/29 00:15:48;;;;;;;2.42;1.20;;;16.70;78.50;;;;;;2068210;28;20121;-93
2021/07/29 00:16:51;;;;;;;2.83;1.30;;;16.70;78.40;;;;;;2061653;28;20394;-93
2021/07/29 00:19:08;;;;;;;2.80;1.17;;;16.70;78.40;;;;;;2052916;28;20042;-93
2021/07/29 00:20:09;;;;;;;3.08;1.40;;;16.70;78.40;;;;;;2057561;28;20042;-92
2021/07/29 00:21:10;;;;;;;3.67;1.30;;;16.70;78.40;;;;;;2058811;28;20081;-92
2021/07/29 00:22:11;;;;;;;1.38;0.95;;;16.70;78.30;;;;;;2042479;29;20147;-92
2021/07/29 00:23:12;;;;;;;2.75;1.10;;;16.70;78.30;;;;;;2050079;28;20094;-93
2021/07/29 00:24:12;;;;;;;2.72;1.00;;;16.70;78.30;;;;;;2050501;29;20039;-91
2021/07/29 00:25:13;;;;;;;2.55;1.25;;;16.70;78.30;;;;;;2062493;28;20034;-93
2021/07/29 00:26:14;;;;;;;2.92;1.23;;;16.70;78.30;;;;;;2066428;28;20080;-92
2021/07/29 00:27:15;;;;;;;2.20;1.30;;;16.70;78.30;;;;;;2057960;28;20047;-93
2021/07/29 00:28:15;;;;;;;2.75;1.17;;;16.70;78.30;;;;;;2057296;28;20043;-92
2021/07/29 00:29:16;;;;;;;2.35;1.30;;;16.70;78.30;;;;;;2071578;28;20007;-93
2021/07/29 00:30:20;;;;;;;2.60;1.20;;;16.70;78.30;;;;;;2066283;28;20055;-92
2021/07/29 00:31:27;;;;;;;3.35;1.30;;;16.70;78.30;;;;;;2050392;29;20020;-93
2021/07/29 00:32:28;;;;;;;1.20;0.90;;;16.70;78.30;;;;;;2053036;28;20028;-93
2021/07/29 00:33:29;;;;;;;2.17;1.13;;;16.70;78.30;;;;;;2061558;28;20070;-93
2021/07/29 00:34:29;;;;;;;3.03;1.20;;;16.70;78.30;;;;;;2069797;28;20026;-92
2021/07/29 00:35:31;;;;;;;1.52;1.00;;;16.70;78.40;;;;;;2068531;28;20120;-93
2021/07/29 00:36:32;;;;;;;2.40;1.15;;;16.60;78.30;;;;;;2069982;28;20125;-93
2021/07/29 00:37:39;;;;;;;3.55;1.40;;;16.60;78.20;;;;;;2065515;28;20034;-93
2021/07/29 00:38:39;;;;;;;1.95;1.00;;;16.60;78.20;;;;;;2065720;28;20042;-93
2021/07/29 00:39:40;;;;;;;1.88;0.95;;;16.60;78.20;;;;;;2067704;28;20065;-93
2021/07/29 00:40:41;;;;;;;3.45;1.20;;;16.60;78.20;;;;;;2050535;28;20413;-93
2021/07/29 00:41:42;;;;;;;2.45;1.08;;;16.60;78.20;;;;;;2050236;28;20032;-93
2021/07/29 00:42:43;;;;;;;2.15;1.05;;;16.60;78.20;;;;;;2057482;28;20101;-93
2021/07/29 00:43:44;;;;;;;2.28;1.30;;;16.60;78.20;;;;;;2058144;28;20066;-93
2021/07/29 00:44:45;;;;;;;1.98;1.20;;;16.60;78.20;;;;;;2050472;28;20098;-93
2021/07/29 00:45:46;;;;;;;3.15;1.20;;;16.60;78.20;;;;;;2057690;28;20497;-93
2021/07/29 00:46:46;;;;;;;3.08;1.27;;;16.60;78.20;;;;;;2051765;28;20082;-93
2021/07/29 00:47:47;;;;;;;2.85;1.35;;;16.60;78.20;;;;;;2060119;28;20401;-92
2021/07/29 00:48:48;;;;;;;2.35;1.23;;;16.60;78.20;;;;;;2064990;28;20133;-93
2021/07/29 00:49:49;;;;;;;1.88;1.00;;;16.60;78.20;;;;;;2041294;29;20122;-93
2021/07/29 00:50:50;;;;;;;3.03;1.13;;;16.60;78.20;;;;;;2040259;28;20039;-93
2021/07/29 00:51:51;;;;;;;2.17;1.00;;;16.50;78.20;;;;;;2050139;28;20150;-93
2021/07/29 00:52:52;;;;;;;2.40;1.17;;;16.50;78.20;;;;;;2041950;29;20050;-93
2021/07/29 00:53:53;;;;;;;2.65;1.00;;;16.50;78.20;;;;;;2050133;28;20131;-93
2021/07/29 00:54:54;;;;;;;2.50;1.02;;;16.50;78.30;;;;;;2049982;29;20098;-92
2021/07/29 00:55:56;;;;;;;2.15;1.00;;;16.50;78.30;;;;;;2056007;28;20031;-93
2021/07/29 00:56:59;;;;;;;2.17;0.90;;;16.50;78.40;;;;;;2062448;28;21792;-93
2021/07/29 00:58:00;;;;;;;1.80;1.02;;;16.50;78.40;;;;;;2064371;28;20039;-94
2021/07/29 00:59:00;;;;;;;2.45;1.13;;;16.50;78.40;;;;;;2054035;28;20030;-94
2021/07/29 01:00:03;;;;;;;2.08;1.00;;;16.50;78.50;;;;;;2050370;28;20094;-94
2021/07/29 01:01:03;;;;;;;2.95;1.00;;;16.50;78.50;;;;;;2055152;28;20417;-93
2021/07/29 01:02:04;;;;;;;2.85;1.38;;;16.40;78.50;;;;;;2048640;29;20050;-94
2021/07/29 01:03:05;;;;;;;2.40;1.10;;;16.50;78.60;;;;;;2049865;28;20031;-94
2021/07/29 01:04:06;;;;;;;3.38;1.15;;;16.40;78.50;;;;;;2050401;28;20031;-94
2021/07/29 01:05:07;;;;;;;3.08;1.25;;;16.40;78.50;;;;;;2050185;28;20074;-94
2021/07/29 01:06:08;;;;;;;2.60;1.20;;;16.40;78.50;;;;;;2050456;28;20040;-93
2021/07/29 01:07:09;;;;;;;2.05;0.98;;;16.40;78.50;;;;;;2057181;28;20047;-93
2021/07/29 01:08:10;;;;;;;2.17;1.05;;;16.40;78.50;;;;;;2050130;28;20039;-93
2021/07/29 01:09:11;;;;;;;2.80;0.90;;;16.40;78.50;;;;;;2052463;28;20166;-94
2021/07/29 01:10:12;;;;;;;2.83;1.00;;;16.40;78.60;;;;;;2058548;28;20064;-93
2021/07/29 01:11:12;;;;;;;2.83;1.40;;;16.40;78.60;;;;;;2057421;28;20535;-93
2021/07/29 01:12:13;;;;;;;1.88;1.00;;;16.40;78.60;;;;;;2058328;28;20063;-93
2021/07/29 01:13:14;;;;;;;2.75;1.23;;;16.40;78.60;;;;;;2057596;28;20038;-94
2021/07/29 01:14:15;;;;;;;1.92;0.98;;;16.40;78.60;;;;;;2065308;28;20523;-95
2021/07/29 01:15:16;;;;;;;2.70;1.00;;;16.30;78.60;;;;;;2042079;29;20039;-93
2021/07/29 01:16:17;;;;;;;2.78;1.02;;;16.30;78.60;;;;;;2057451;28;20057;-93
2021/07/29 01:17:17;;;;;;;3.53;1.20;;;16.30;78.60;;;;;;2059902;28;20038;-93
2021/07/29 01:18:18;;;;;;;3.28;1.20;;;16.30;78.70;;;;;;2052163;28;20039;-94
2021/07/29 01:19:22;;;;;;;2.22;1.15;;;16.30;78.80;;;;;;2054280;28;20105;-93
2021/07/29 01:20:23;;;;;;;3.28;1.08;;;16.30;78.80;;;;;;2060263;28;20059;-93
2021/07/29 01:21:28;;;;;;;2.15;1.02;;;16.30;78.80;;;;;;2056372;28;20035;-93
2021/07/29 01:22:34;;;;;;;2.05;1.08;;;16.30;78.80;;;;;;2056620;28;20418;-94
2021/07/29 01:23:35;;;;;;;3.08;1.10;;;16.30;78.80;;;;;;2050662;28;20110;-93
2021/07/29 01:24:35;;;;;;;3.15;1.00;;;16.20;78.80;;;;;;2042076;29;20115;-93
2021/07/29 01:25:36;;;;;;;2.95;1.08;;;16.30;78.80;;;;;;2046596;29;20081;-93
2021/07/29 01:26:37;;;;;;;4.22;1.27;;;16.20;78.80;;;;;;2055987;28;20508;-93
2021/07/29 01:27:38;;;;;;;3.70;1.20;;;16.20;78.80;;;;;;2057496;28;20089;-93
2021/07/29 01:28:38;;;;;;;3.75;1.27;;;16.20;78.90;;;;;;2050284;29;20385;-93
2021/07/29 01:29:39;;;;;;;3.13;0.95;;;16.20;78.90;;;;;;2057219;28;20043;-94
2021/07/29 01:30:40;;;;;;;2.42;1.15;;;16.20;78.80;;;;;;2057069;28;20082;-93
2021/07/29 01:31:41;;;;;;;2.95;1.38;;;16.20;78.90;;;;;;2063652;28;20134;-94
2021/07/29 01:32:42;;;;;;;3.38;1.17;;;16.20;78.80;;;;;;2057971;28;20071;-93
2021/07/29 01:33:43;;;;;;;3.00;1.08;;;16.20;78.80;;;;;;2057769;28;20043;-93
2021/07/29 01:34:43;;;;;;;2.55;1.10;;;16.20;78.70;;;;;;2059399;28;20023;-93
2021/07/29 01:35:44;;;;;;;2.55;0.95;;;16.30;78.80;;;;;;2060527;28;20592;-93
2021/07/29 01:36:45;;;;;;;2.95;1.10;;;16.30;78.70;;;;;;2052329;29;20032;-94
2021/07/29 01:37:46;;;;;;;4.63;1.35;;;16.30;78.70;;;;;;2056432;28;20023;-92
2021/07/29 01:38:47;;;;;;;2.20;1.00;;;16.30;78.60;;;;;;2062740;28;20070;-94
2021/07/29 01:39:48;;;;;;;2.58;1.02;;;16.30;78.60;;;;;;2059619;28;20054;-95
2021/07/29 01:40:49;;;;;;;3.53;1.23;;;16.30;78.60;;;;;;2049827;28;20573;-93
2021/07/29 01:41:49;;;;;;;3.33;1.17;;;16.30;78.60;;;;;;2057141;28;20074;-94
2021/07/29 01:42:50;;;;;;;2.47;1.10;;;16.30;78.60;;;;;;2054526;28;20130;-93
2021/07/29 01:43:51;;;;;;;2.95;1.10;;;16.30;78.70;;;;;;2051550;28;20523;-95
2021/07/29 01:44:51;;;;;;;2.42;0.95;;;16.30;78.60;;;;;;2050533;28;20086;-93
2021/07/29 01:45:52;;;;;;;2.78;1.13;;;16.30;78.60;;;;;;2043054;29;20054;-94
2021/07/29 01:46:52;;;;;;;3.33;1.20;;;16.30;78.70;;;;;;2049370;28;20043;-93
2021/07/29 01:47:53;;;;;;;3.00;0.90;;;16.30;78.70;;;;;;2057814;28;20437;-93
2021/07/29 01:48:54;;;;;;;2.15;1.05;;;16.30;78.70;;;;;;2060628;28;20034;-93
2021/07/29 01:49:56;;;;;;;2.70;0.90;;;16.30;78.70;;;;;;2056318;28;20034;-93
2021/07/29 01:50:56;;;;;;;2.55;1.00;;;16.30;78.70;;;;;;2049649;28;20118;-94
2021/07/29 01:51:58;;;;;;;2.30;1.00;;;16.40;78.80;;;;;;2049676;28;20027;-94
2021/07/29 01:53:06;;;;;;;2.60;0.90;;;16.30;78.70;;;;;;2041938;29;20111;-94
2021/07/29 01:54:06;;;;;;;1.42;0.80;;;16.30;78.70;;;;;;2049489;28;20151;-94
2021/07/29 01:55:08;;;;;;;2.13;1.00;;;16.30;78.80;;;;;;2057372;28;20090;-94
2021/07/29 01:56:10;;;;;;;2.13;1.10;;;16.30;78.80;;;;;;2056356;28;20134;-94
2021/07/29 01:57:11;;;;;;;3.65;1.10;;;16.30;78.70;;;;;;2048146;28;20038;-93
2021/07/29 01:58:13;;;;;;;3.30;1.15;;;16.30;78.70;;;;;;2049907;28;20031;-93
2021/07/29 01:59:14;;;;;;;4.25;1.25;;;16.30;78.70;;;;;;2045880;28;20074;-94
2021/07/29 02:00:15;;;;;;;4.15;1.10;;;16.40;78.80;;;;;;2048919;29;20047;-93
2021/07/29 02:01:23;;;;;;;3.45;1.40;;;16.30;78.70;;;;;;2041966;28;20092;-95
2021/07/29 02:02:26;;;;;;;3.97;1.20;;;16.30;78.70;;;;;;2051044;28;20043;-93
2021/07/29 02:03:27;;;;;;;2.45;1.02;;;16.40;78.70;;;;;;2050277;28;20114;-94
2021/07/29 02:04:28;;;;;;;4.60;1.40;;;16.40;78.70;;;;;;2057413;28;20053;-95
2021/07/29 02:05:32;;;;;;;5.55;1.30;;;16.30;78.70;;;;;;2063441;28;20027;-95
2021/07/29 02:06:35;;;;;;;3.33;1.10;;;16.30;78.70;;;;;;2057531;28;20045;-94
2021/07/29 02:07:36;;;;;;;3.17;1.08;;;16.30;78.70;;;;;;2057148;28;20094;-95
2021/07/29 02:08:36;;;;;;;3.38;1.35;;;16.30;78.70;;;;;;2049715;29;20122;-94
2021/07/29 02:09:37;;;;;;;3.35;1.10;;;16.30;78.70;;;;;;2048643;28;20035;-94
2021/07/29 02:10:38;;;;;;;1.63;0.90;;;16.30;78.80;;;;;;2041717;29;20164;-93
2021/07/29 02:11:38;;;;;;;3.35;1.10;;;16.30;78.80;;;;;;2061299;28;20085;-92
2021/07/29 02:12:39;;;;;;;3.08;1.00;;;16.30;78.80;;;;;;2057028;28;20392;-93
2021/07/29 02:13:40;;;;;;;3.17;1.00;;;16.30;78.80;;;;;;2057715;28;20066;-93
2021/07/29 02:14:41;;;;;;;2.83;1.15;;;16.30;78.90;;;;;;2057598;28;20027;-94
2021/07/29 02:15:42;;;;;;;2.75;0.90;;;16.20;78.90;;;;;;2057145;28;20042;-93
2021/07/29 02:16:42;;;;;;;2.50;0.90;;;16.20;78.90;;;;;;2065874;28;20073;-93
2021/07/29 02:17:43;;;;;;;3.30;1.00;;;16.20;78.90;;;;;;2056839;28;20077;-95
2021/07/29 02:18:44;;;;;;;3.13;1.10;;;16.20;79.00;;;;;;2060658;28;20034;-94
2021/07/29 02:19:45;;;;;;;3.28;1.20;;;16.20;79.00;;;;;;2064539;28;20033;-94
2021/07/29 02:20:46;;;;;;;2.55;1.10;;;16.20;79.00;;;;;;2047633;28;20074;-94
2021/07/29 02:21:46;;;;;;;3.25;1.13;;;16.20;79.00;;;;;;2045100;29;20455;-95
2021/07/29 02:22:47;;;;;;;3.10;1.10;;;16.20;79.10;;;;;;2048475;29;20055;-94
2021/07/29 02:23:48;;;;;;;2.45;1.05;;;16.20;79.10;;;;;;2058177;28;20023;-94
2021/07/29 02:24:49;;;;;;;3.63;1.00;;;16.20;79.20;;;;;;2048461;29;20509;-95
2021/07/29 02:25:49;;;;;;;4.10;1.08;;;16.20;79.20;;;;;;2041807;29;20454;-93
2021/07/29 02:26:50;;;;;;;3.00;1.02;;;16.10;79.10;;;;;;2033466;29;20050;-94
2021/07/29 02:27:51;;;;;;;2.75;1.10;;;16.10;79.20;;;;;;2037895;29;20067;-93
2021/07/29 02:28:52;;;;;;;2.80;1.10;;;16.10;79.30;;;;;;2047847;29;20170;-93
2021/07/29 02:29:53;;;;;;;2.75;1.20;;;16.10;79.20;;;;;;2057572;28;20138;-93
2021/07/29 02:30:55;;;;;;;2.42;1.08;;;16.10;79.30;;;;;;2064109;28;20050;-93
2021/07/29 02:31:56;;;;;;;2.22;1.02;;;16.10;79.40;;;;;;2060588;28;20094;-94
2021/07/29 02:32:56;;;;;;;2.00;0.73;;;16.10;79.40;;;;;;2064782;28;20051;-94
2021/07/29 02:33:57;;;;;;;2.15;0.90;;;16.00;79.40;;;;;;2058252;28;20121;-94
2021/07/29 02:34:58;;;;;;;3.17;0.80;;;16.00;79.40;;;;;;2057544;28;20034;-94
2021/07/29 02:35:58;;;;;;;2.70;1.10;;;16.00;79.40;;;;;;2056252;28;20038;-94
2021/07/29 02:36:59;;;;;;;2.85;0.98;;;16.00;79.50;;;;;;2055088;28;20489;-94
2021/07/29 02:38:00;;;;;;;2.30;1.10;;;16.00;79.60;;;;;;2046485;28;20043;-94
2021/07/29 02:39:01;;;;;;;2.88;1.15;;;16.00;79.60;;;;;;2050281;28;20048;-93
2021/07/29 02:40:02;;;;;;;2.65;0.93;;;15.90;79.60;;;;;;2058587;28;20092;-93
2021/07/29 02:41:02;;;;;;;2.60;0.95;;;16.00;79.80;;;;;;2064034;28;20026;-94
2021/07/29 02:42:04;;;;;;;3.40;1.10;;;15.90;79.80;;;;;;2065507;28;20459;-94
2021/07/29 02:43:04;;;;;;;2.30;1.00;;;15.90;79.80;;;;;;2049066;28;20039;-94
2021/07/29 02:44:05;;;;;;;2.78;1.17;;;15.90;79.80;;;;;;2049394;29;20035;-93
2021/07/29 02:45:06;;;;;;;2.95;1.00;;;15.90;79.80;;;;;;2053948;28;20034;-95
2021/07/29 02:46:07;;;;;;;3.05;1.27;;;15.90;79.80;;;;;;2056492;28;20058;-94
2021/07/29 02:47:08;;;;;;;1.73;1.00;;;15.90;79.80;;;;;;2061915;28;20061;-94
2021/07/29 02:48:08;;;;;;;3.17;0.93;;;15.90;79.80;;;;;;2058833;28;20107;-94
2021/07/29 02:49:09;;;;;;;1.95;1.00;;;15.90;79.90;;;;;;2056272;28;20066;-93
2021/07/29 02:50:10;;;;;;;2.58;0.90;;;15.90;79.90;;;;;;2049413;28;20532;-93
2021/07/29 02:51:11;;;;;;;2.20;1.00;;;15.90;79.90;;;;;;2049449;28;20039;-94
2021/07/29 02:52:12;;;;;;;2.92;1.02;;;15.90;79.90;;;;;;2057139;28;20055;-93
2021/07/29 02:53:12;;;;;;;2.72;1.05;;;15.90;79.90;;;;;;2047897;28;20043;-94
2021/07/29 02:54:13;;;;;;;2.30;1.00;;;15.90;80.00;;;;;;2041197;29;20036;-94
2021/07/29 02:55:14;;;;;;;2.83;0.90;;;15.90;80.00;;;;;;2057377;28;20050;-93
2021/07/29 02:56:15;;;;;;;2.90;0.82;;;15.90;80.00;;;;;;2056547;28;20023;-93
2021/07/29 02:57:16;;;;;;;2.53;1.00;;;15.90;79.90;;;;;;2055868;28;20591;-94
2021/07/29 02:58:17;;;;;;;4.05;1.20;;;15.90;79.90;;;;;;2056631;28;20031;-94
2021/07/29 02:59:18;;;;;;;2.35;1.05;;;15.90;79.90;;;;;;2052758;28;20073;-93
2021/07/29 03:00:19;;;;;;;3.25;1.02;;;15.90;79.90;;;;;;2063073;28;20101;-94
2021/07/29 03:01:20;;;;;;;3.63;0.90;;;15.90;79.80;;;;;;2068681;28;20038;-94
2021/07/29 03:02:20;;;;;;;2.50;1.00;;;15.90;79.80;;;;;;2069540;28;20057;-93
2021/07/29 03:03:21;;;;;;;2.42;0.90;;;15.90;79.90;;;;;;2063077;28;20081;-93
2021/07/29 03:04:23;;;;;;;3.35;1.20;;;15.90;79.90;;;;;;2061297;28;20035;-94
2021/07/29 03:05:24;;;;;;;3.15;1.00;;;15.90;79.90;;;;;;2055515;28;20032;-94
2021/07/29 03:06:25;;;;;;;2.67;1.00;;;15.90;79.90;;;;;;2049564;29;20039;-93
2021/07/29 03:07:26;;;;;;;3.00;1.10;;;15.90;79.90;;;;;;2049325;28;20065;-94
2021/07/29 03:08:27;;;;;;;2.75;1.08;;;15.90;79.90;;;;;;2056064;28;20059;-93
2021/07/29 03:09:27;;;;;;;3.08;1.05;;;15.90;79.90;;;;;;2048284;28;20039;-94
2021/07/29 03:10:28;;;;;;;2.13;0.90;;;15.90;80.00;;;;;;2048978;28;20133;-93
2021/07/29 03:11:29;;;;;;;3.58;1.25;;;15.90;80.00;;;;;;2056797;28;20065;-93
2021/07/29 03:12:33;;;;;;;3.65;1.33;;;15.90;80.00;;;;;;2052688;28;20138;-94
2021/07/29 03:13:33;;;;;;;4.18;1.40;;;15.90;80.00;;;;;;2064898;28;20035;-94
2021/07/29 03:14:34;;;;;;;4.22;1.10;;;15.90;80.00;;;;;;2057545;28;20082;-94
2021/07/29 03:15:35;;;;;;;4.65;1.15;;;15.90;80.00;;;;;;2053416;28;20421;-94
2021/07/29 03:16:35;;;;;;;3.72;1.20;;;15.90;80.00;;;;;;2061796;28;20031;-94
2021/07/29 03:17:36;;;;;;;4.45;0.95;;;15.90;80.00;;;;;;2053600;28;20039;-94
2021/07/29 03:18:37;;;;;;;3.22;1.00;;;15.90;80.00;;;;;;2053242;28;20107;-93
2021/07/29 03:19:38;;;;;;;1.88;1.00;;;15.90;80.00;;;;;;2048015;28;20044;-94
2021/07/29 03:20:40;;;;;;;2.88;1.10;;;15.90;80.00;;;;;;2057023;28;20038;-94
2021/07/29 03:21:41;;;;;;;3.97;1.30;;;15.90;80.00;;;;;;2065392;28;20030;-94
2021/07/29 03:22:42;;;;;;;3.90;1.17;;;15.90;80.00;;;;;;2064427;28;20039;-94
2021/07/29 03:23:43;;;;;;;2.20;0.95;;;15.90;80.00;;;;;;2057232;28;20074;-94
2021/07/29 03:24:43;;;;;;;5.13;1.55;;;15.90;80.00;;;;;;2054345;28;20030;-94
2021/07/29 03:25:52;;;;;;;4.05;1.00;;;15.90;80.00;;;;;;2055424;28;20502;-94
2021/07/29 03:26:52;;;;;;;2.67;0.95;;;16.00;80.10;;;;;;2061857;28;20137;-94
2021/07/29 03:27:53;;;;;;;3.90;1.23;;;16.00;80.10;;;;;;2048984;28;20035;-94
2021/07/29 03:28:54;;;;;;;4.47;1.00;;;16.00;80.10;;;;;;2048762;28;20039;-94
2021/07/29 03:29:54;;;;;;;3.78;1.10;;;16.00;80.10;;;;;;2048908;29;20561;-95
2021/07/29 03:30:55;;;;;;;2.22;1.10;;;16.00;80.10;;;;;;2045934;28;20513;-95
2021/07/29 03:31:56;;;;;;;3.25;1.00;;;16.00;80.10;;;;;;2056865;28;20042;-94
2021/07/29 03:32:57;;;;;;;3.35;1.00;;;16.00;80.10;;;;;;2056688;28;20038;-94
2021/07/29 03:33:57;;;;;;;3.28;1.00;;;16.00;80.10;;;;;;2061037;28;20089;-95
2021/07/29 03:34:58;;;;;;;2.58;1.02;;;16.00;80.20;;;;;;2065233;28;20031;-93
2021/07/29 03:35:59;;;;;;;4.18;1.02;;;16.00;80.20;;;;;;2057277;28;20035;-94
2021/07/29 03:37:00;;;;;;;3.88;1.20;;;16.00;80.10;;;;;;2056856;28;20117;-93
2021/07/29 03:38:00;;;;;;;2.95;1.10;;;16.00;80.10;;;;;;2064764;28;20038;-94
2021/07/29 03:39:05;;;;;;;1.83;1.00;;;16.10;80.20;;;;;;2055725;28;20039;-94
2021/07/29 03:40:06;;;;;;;4.57;1.25;;;16.00;80.10;;;;;;2049192;28;20032;-93
2021/07/29 03:41:10;;;;;;;3.25;1.00;;;16.00;80.20;;;;;;2048521;28;20051;-93
2021/07/29 03:42:10;;;;;;;4.35;1.10;;;16.10;80.20;;;;;;2047500;29;20084;-94
2021/07/29 03:43:11;;;;;;;4.13;1.35;;;16.10;80.10;;;;;;2059153;28;20042;-93
2021/07/29 03:44:12;;;;;;;4.07;1.10;;;16.10;80.20;;;;;;2058684;28;20281;-92
2021/07/29 03:45:13;;;;;;;2.35;1.10;;;16.10;80.10;;;;;;2058757;28;20031;-93
2021/07/29 03:46:14;;;;;;;3.45;1.17;;;16.00;80.10;;;;;;2056847;28;20039;-95
2021/07/29 03:47:15;;;;;;;3.25;1.15;;;16.00;80.20;;;;;;2053208;28;20453;-94
2021/07/29 03:48:15;;;;;;;2.40;1.00;;;16.10;80.20;;;;;;2062055;28;20098;-94
2021/07/29 03:49:18;;;;;;;3.05;1.08;;;16.10;80.20;;;;;;2066823;28;20038;-93
2021/07/29 03:50:19;;;;;;;3.42;1.20;;;16.10;80.30;;;;;;2065397;28;20057;-94
2021/07/29 03:51:20;;;;;;;2.10;0.90;;;16.10;80.30;;;;;;2058811;28;20030;-94
2021/07/29 03:52:20;;;;;;;4.47;1.25;;;16.10;80.30;;;;;;2051974;28;20114;-94
2021/07/29 03:53:21;;;;;;;6.10;1.25;;;16.10;80.30;;;;;;2052653;28;20054;-94
2021/07/29 03:54:22;;;;;;;3.67;1.30;;;16.10;80.30;;;;;;2055631;28;20031;-94
2021/07/29 03:55:22;;;;;;;4.97;1.25;;;16.10;80.50;;;;;;2062467;28;20070;-94
2021/07/29 03:56:23;;;;;;;3.97;0.98;;;16.10;80.40;;;;;;2066706;28;20108;-94
2021/07/29 03:57:24;;;;;;;3.30;1.13;;;16.10;80.30;;;;;;2065812;28;20579;-94
2021/07/29 03:58:25;;;;;;;3.22;1.00;;;16.10;80.30;;;;;;2058522;28;20074;-94
2021/07/29 03:59:25;;;;;;;4.03;1.10;;;16.10;80.30;;;;;;2051205;28;20050;-93
2021/07/29 04:00:27;;;;;;;3.05;1.02;;;16.10;80.30;;;;;;2058038;28;20034;-94
2021/07/29 04:01:28;;;;;;;5.10;1.05;;;16.10;80.40;;;;;;2064624;28;20069;-94
2021/07/29 04:02:29;;;;;;;2.72;1.10;;;16.10;80.40;;;;;;2066569;28;20543;-94
2021/07/29 04:03:29;;;;;;;3.50;1.08;;;16.10;80.40;;;;;;2058338;28;20050;-94
2021/07/29 04:04:30;;;;;;;5.07;1.27;;;16.10;80.50;;;;;;2050666;29;20078;-94
2021/07/29 04:05:31;;;;;;;2.70;1.20;;;16.10;80.40;;;;;;2050207;28;20122;-94
2021/07/29 04:06:31;;;;;;;4.65;1.30;;;16.10;80.50;;;;;;2057841;28;20046;-94
2021/07/29 04:07:36;;;;;;;3.92;1.10;;;16.10;80.60;;;;;;2058185;28;20509;-94
2021/07/29 04:08:37;;;;;;;5.15;1.23;;;16.10;80.60;;;;;;2066822;28;20026;-94
2021/07/29 04:09:38;;;;;;;4.03;1.10;;;16.10;80.60;;;;;;2044438;29;20087;-94
2021/07/29 04:10:38;;;;;;;2.30;1.00;;;16.10;80.70;;;;;;2058794;28;20035;-95
2021/07/29 04:11:39;;;;;;;3.72;1.20;;;16.10;80.80;;;;;;2059001;28;20034;-94
2021/07/29 04:12:40;;;;;;;2.83;1.10;;;16.10;80.90;;;;;;2051905;28;20142;-94
2021/07/29 04:13:41;;;;;;;2.97;1.00;;;16.10;80.90;;;;;;2051220;28;20039;-96
2021/07/29 04:14:41;;;;;;;3.33;1.00;;;16.10;81.00;;;;;;2057452;28;20038;-94
2021/07/29 04:15:42;;;;;;;4.20;1.00;;;16.10;81.10;;;;;;2058184;28;20098;-94
2021/07/29 04:16:43;;;;;;;3.45;1.20;;;16.10;81.00;;;;;;2058135;28;20127;-95
2021/07/29 04:17:43;;;;;;;4.07;1.17;;;16.10;81.10;;;;;;2063267;28;20469;-94
2021/07/29 04:18:44;;;;;;;5.07;1.17;;;16.10;81.10;;;;;;2051532;29;20580;-93
2021/07/29 04:19:45;;;;;;;2.92;1.30;;;16.10;81.10;;;;;;2049284;28;20138;-94
2021/07/29 04:20:46;;;;;;;3.90;1.00;;;16.10;81.10;;;;;;2049699;28;20049;-94
2021/07/29 04:21:47;;;;;;;4.18;1.10;;;16.10;81.10;;;;;;2050433;28;20134;-94
2021/07/29 04:22:48;;;;;;;3.20;1.17;;;16.00;81.10;;;;;;2050345;28;20410;-94
2021/07/29 04:23:48;;;;;;;4.47;1.20;;;16.10;81.20;;;;;;2057532;28;20061;-94
2021/07/29 04:24:52;;;;;;;3.20;1.30;;;16.10;81.30;;;;;;2038567;29;20096;-93
2021/07/29 04:25:52;;;;;;;4.78;1.15;;;16.10;81.40;;;;;;2050592;28;20122;-92
2021/07/29 04:26:53;;;;;;;4.20;1.20;;;16.10;81.50;;;;;;2049620;28;20134;-92
2021/07/29 04:27:54;;;;;;;2.83;1.20;;;16.00;81.60;;;;;;2042305;29;20118;-92
2021/07/29 04:28:54;;;;;;;4.22;1.30;;;16.00;81.70;;;;;;2042545;29;20036;-92
2021/07/29 04:29:55;;;;;;;4.07;1.08;;;16.00;81.90;;;;;;2049905;29;20413;-92
2021/07/29 04:30:55;;;;;;;3.42;1.20;;;15.90;82.10;;;;;;2046296;29;20518;-91
2021/07/29 04:31:56;;;;;;;4.40;1.50;;;15.80;82.40;;;;;;2044077;29;20526;-92
2021/07/29 04:32:57;;;;;;;3.53;1.30;;;15.80;82.70;;;;;;2058234;28;20039;-91
2021/07/29 04:33:57;;;;;;;4.78;1.20;;;15.70;83.00;;;;;;2034315;29;20519;-90
2021/07/29 04:34:58;;;;;;;3.70;1.23;;;15.60;83.30;;;;;;2039470;29;20042;-91
2021/07/29 04:35:58;;;;;;;3.83;1.08;;;15.60;83.70;;;;;;2041739;29;20082;-91
2021/07/29 04:36:59;;;;;;;2.85;1.20;;;15.50;83.90;;;;;;2056510;28;20041;-91
2021/07/29 04:38:00;;;;;;;2.30;1.10;;;15.50;84.10;;;;;;2050161;28;20046;-91
2021/07/29 04:39:02;;;;;;;4.50;1.60;;;15.40;84.30;;;;;;2050379;29;20399;-90
2021/07/29 04:40:03;;;;;;;4.00;1.30;;;15.40;84.60;;;;;;2050054;28;20490;-91
2021/07/29 04:41:04;;;;;;;2.88;1.15;;;15.30;84.70;;;;;;2062438;28;20039;-90
2021/07/29 04:42:05;;;;;;;4.00;1.50;;;15.30;84.90;;;;;;2051598;28;20529;-90
2021/07/29 04:43:06;;;;;;;5.75;1.30;;;15.30;85.10;;;;;;2042210;29;20052;-91
2021/07/29 04:44:08;;;;;;;3.97;1.10;;;15.30;85.20;;;;;;2034460;29;20036;-91
2021/07/29 04:45:09;;;;;;;2.63;1.10;;;15.30;85.40;;;;;;2043896;28;20043;-90
2021/07/29 04:46:10;;;;;;;3.85;1.17;;;15.30;85.40;;;;;;2042434;28;20123;-90
2021/07/29 04:47:15;;;;;;;3.95;1.10;;;15.20;85.50;;;;;;2057760;28;20047;-90
2021/07/29 04:48:15;;;;;;;4.82;1.40;;;15.20;85.70;;;;;;2042603;29;20039;-91
2021/07/29 04:49:20;;;;;;;3.65;1.10;;;15.20;85.80;;;;;;2049392;28;20098;-91
2021/07/29 04:50:21;;;;;;;2.13;1.10;;;15.20;85.80;;;;;;2063047;28;20084;-91
2021/07/29 04:51:21;;;;;;;4.32;1.40;;;15.20;85.90;;;;;;2047519;28;20482;-91
2021/07/29 04:52:22;;;;;;;5.88;1.40;;;15.20;85.90;;;;;;2041905;29;20038;-91
2021/07/29 04:53:22;;;;;;;3.15;1.20;;;15.20;86.00;;;;;;2049984;28;20047;-91
2021/07/29 04:54:23;;;;;;;3.13;1.10;;;15.10;86.00;;;;;;2030804;29;20032;-91
2021/07/29 04:55:24;;;;;;;4.50;1.90;;;15.10;86.00;;;;;;2038773;29;20068;-91
2021/07/29 04:56:24;;;;;;;3.22;1.38;;;15.10;86.10;;;;;;2051665;28;20031;-91
2021/07/29 04:57:25;;;;;;;4.03;1.33;;;15.00;86.10;;;;;;2048116;29;20045;-91
2021/07/29 04:58:26;;;;;;;5.63;1.60;;;15.10;86.20;;;;;;2034471;29;20096;-90
2021/07/29 04:59:26;;;;;;;5.75;1.40;;;15.00;86.30;;;;;;2052358;28;20047;-90
2021/07/29 05:00:29;;;;;;;4.50;1.50;;;15.00;86.30;;;;;;2048494;29;20043;-91
2021/07/29 05:01:30;;;;;;;4.30;1.40;;;15.00;86.40;;;;;;2058194;28;20035;-90
2021/07/29 05:02:30;;;;;;;4.53;1.23;;;15.00;86.40;;;;;;2033940;29;20048;-91
2021/07/29 05:03:31;;;;;;;3.22;1.20;;;15.00;86.50;;;;;;2042381;29;20122;-91
2021/07/29 05:04:33;;;;;;;5.47;1.40;;;15.00;86.50;;;;;;2049801;29;20530;-91
2021/07/29 05:05:33;;;;;;;3.65;1.45;;;15.00;86.50;;;;;;2049733;28;20071;-91
2021/07/29 05:06:35;;;;;;;4.03;0.98;;;15.00;86.50;;;;;;2042128;29;20048;-91
2021/07/29 05:07:36;;;;;;;3.67;1.30;;;15.00;86.60;;;;;;2043029;28;20039;-90
2021/07/29 05:08:36;;;;;;;3.63;1.40;;;15.00;86.60;;;;;;2051627;29;20016;-92
2021/07/29 05:09:37;;;;;;;5.18;1.30;;;15.00;86.60;;;;;;2037376;29;20036;-91
2021/07/29 05:10:37;;;;;;;3.55;1.20;;;15.00;86.60;;;;;;2050248;28;20133;-90
2021/07/29 05:11:38;;;;;;;4.60;1.55;;;15.00;87.20;;;;;;2055683;28;20461;-91
2021/07/29 05:12:39;;;;;;;3.67;1.23;;;15.10;86.60;;;;;;2048866;28;20103;-91
2021/07/29 05:13:40;;;;;;;4.43;1.30;;;15.10;86.60;;;;;;2049110;28;20039;-91
2021/07/29 05:14:40;;;;;;;4.53;1.20;;;15.10;86.60;;;;;;2042203;28;20063;-91
2021/07/29 05:15:41;;;;;;;3.42;1.38;;;15.20;86.60;;;;;;2034187;29;20048;-90
2021/07/29 05:16:41;;;;;;;4.05;1.20;;;15.10;86.50;;;;;;2033019;29;20040;-90
2021/07/29 05:17:42;;;;;;;4.70;1.25;;;15.20;86.50;;;;;;2049275;29;20122;-91
2021/07/29 05:18:43;;;;;;;3.17;1.15;;;15.30;86.50;;;;;;2057597;28;20081;-91
2021/07/29 05:19:43;;;;;;;4.47;1.30;;;15.30;86.40;;;;;;2049985;29;20043;-91